sensor_id;sensor_type;location;lat;lon;timestamp;temperature;humidity
64961;SHT31;51487;52.266;10.542;2022-07-25T00:00:22;22.38;51.98
64961;SHT31;51487;52.266;10.542;2022-07-25T00:02:48;22.33;52.11
64961;SHT31;51487;52.266;10.542;2022-07-25T00:05:14;22.34;52.22
64961;SHT31;51487;52.266;10.542;2022-07-25T00:07:39;22.33;52.41
64961;SHT31;51487;52.266;10.542;2022-07-25T00:10:06;22.28;52.23
64961;SHT31;51487;52.266;10.542;2022-07-25T00:12:31;22.24;52.39
64961;SHT31;51487;52.266;10.542;2022-07-25T00:14:57;22.22;52.42
64961;SHT31;51487;52.266;10.542;2022-07-25T00:17:23;22.20;52.48
64961;SHT31;51487;52.266;10.542;2022-07-25T00:19:48;22.16;52.59
64961;SHT31;51487;52.266;10.542;2022-07-25T00:22:14;22.14;52.61
64961;SHT31;51487;52.266;10.542;2022-07-25T00:24:39;22.06;52.78
64961;SHT31;51487;52.266;10.542;2022-07-25T00:27:05;22.01;52.99
64961;SHT31;51487;52.266;10.542;2022-07-25T00:29:30;22.00;52.87
64961;SHT31;51487;52.266;10.542;2022-07-25T00:31:56;22.06;52.59
64961;SHT31;51487;52.266;10.542;2022-07-25T00:34:21;22.06;52.60
64961;SHT31;51487;52.266;10.542;2022-07-25T00:36:47;21.99;52.78
64961;SHT31;51487;52.266;10.542;2022-07-25T00:39:12;21.97;52.85
64961;SHT31;51487;52.266;10.542;2022-07-25T00:41:38;21.97;52.76
64961;SHT31;51487;52.266;10.542;2022-07-25T00:44:04;21.96;53.00
64961;SHT31;51487;52.266;10.542;2022-07-25T00:46:30;21.97;52.83
64961;SHT31;51487;52.266;10.542;2022-07-25T00:48:55;22.01;52.44
64961;SHT31;51487;52.266;10.542;2022-07-25T00:51:21;22.01;52.32
64961;SHT31;51487;52.266;10.542;2022-07-25T00:53:47;21.96;52.46
64961;SHT31;51487;52.266;10.542;2022-07-25T00:56:14;21.94;52.37
64961;SHT31;51487;52.266;10.542;2022-07-25T00:58:41;22.00;52.25
64961;SHT31;51487;52.266;10.542;2022-07-25T01:01:07;22.03;52.06
64961;SHT31;51487;52.266;10.542;2022-07-25T01:03:32;21.99;52.33
64961;SHT31;51487;52.266;10.542;2022-07-25T01:05:58;21.97;52.27
64961;SHT31;51487;52.266;10.542;2022-07-25T01:08:24;21.97;52.18
64961;SHT31;51487;52.266;10.542;2022-07-25T01:10:50;21.99;52.04
64961;SHT31;51487;52.266;10.542;2022-07-25T01:13:15;22.03;51.87
64961;SHT31;51487;52.266;10.542;2022-07-25T01:15:42;21.99;52.23
64961;SHT31;51487;52.266;10.542;2022-07-25T01:18:07;21.93;52.09
64961;SHT31;51487;52.266;10.542;2022-07-25T01:20:33;21.89;52.24
64961;SHT31;51487;52.266;10.542;2022-07-25T01:23:00;21.89;52.15
64961;SHT31;51487;52.266;10.542;2022-07-25T01:25:27;21.89;52.27
64961;SHT31;51487;52.266;10.542;2022-07-25T01:27:53;21.92;52.04
64961;SHT31;51487;52.266;10.542;2022-07-25T01:30:21;21.90;52.24
64961;SHT31;51487;52.266;10.542;2022-07-25T01:32:47;21.89;52.06
64961;SHT31;51487;52.266;10.542;2022-07-25T01:35:13;21.92;51.97
64961;SHT31;51487;52.266;10.542;2022-07-25T01:37:39;21.87;52.18
64961;SHT31;51487;52.266;10.542;2022-07-25T01:40:06;21.83;52.24
64961;SHT31;51487;52.266;10.542;2022-07-25T01:42:32;21.83;52.18
64961;SHT31;51487;52.266;10.542;2022-07-25T01:44:58;21.80;52.25
64961;SHT31;51487;52.266;10.542;2022-07-25T01:47:24;21.78;52.33
64961;SHT31;51487;52.266;10.542;2022-07-25T01:49:50;21.76;52.41
64961;SHT31;51487;52.266;10.542;2022-07-25T01:52:16;21.72;52.35
64961;SHT31;51487;52.266;10.542;2022-07-25T01:54:41;21.65;52.56
64961;SHT31;51487;52.266;10.542;2022-07-25T01:57:08;21.63;52.67
64961;SHT31;51487;52.266;10.542;2022-07-25T01:59:40;21.58;52.61
64961;SHT31;51487;52.266;10.542;2022-07-25T02:02:09;21.59;52.78
64961;SHT31;51487;52.266;10.542;2022-07-25T02:04:35;21.55;52.83
64961;SHT31;51487;52.266;10.542;2022-07-25T02:07:02;21.50;52.93
64961;SHT31;51487;52.266;10.542;2022-07-25T02:09:27;21.45;53.17
64961;SHT31;51487;52.266;10.542;2022-07-25T02:11:53;21.41;53.18
64961;SHT31;51487;52.266;10.542;2022-07-25T02:14:18;21.38;53.41
64961;SHT31;51487;52.266;10.542;2022-07-25T02:16:44;21.38;53.32
64961;SHT31;51487;52.266;10.542;2022-07-25T02:19:09;21.41;53.14
64961;SHT31;51487;52.266;10.542;2022-07-25T02:21:35;21.41;53.28
64961;SHT31;51487;52.266;10.542;2022-07-25T02:24:02;21.41;53.26
64961;SHT31;51487;52.266;10.542;2022-07-25T02:26:28;21.43;53.14
64961;SHT31;51487;52.266;10.542;2022-07-25T02:28:53;21.45;53.03
64961;SHT31;51487;52.266;10.542;2022-07-25T02:31:19;21.41;53.10
64961;SHT31;51487;52.266;10.542;2022-07-25T02:33:45;21.45;52.85
64961;SHT31;51487;52.266;10.542;2022-07-25T02:36:11;21.45;52.87
64961;SHT31;51487;52.266;10.542;2022-07-25T02:38:37;21.46;53.03
64961;SHT31;51487;52.266;10.542;2022-07-25T02:41:03;21.45;53.01
64961;SHT31;51487;52.266;10.542;2022-07-25T02:43:29;21.49;52.88
64961;SHT31;51487;52.266;10.542;2022-07-25T02:45:55;21.48;52.93
64961;SHT31;51487;52.266;10.542;2022-07-25T02:48:21;21.43;53.18
64961;SHT31;51487;52.266;10.542;2022-07-25T02:50:46;21.39;53.12
64961;SHT31;51487;52.266;10.542;2022-07-25T02:53:12;21.42;53.13
64961;SHT31;51487;52.266;10.542;2022-07-25T02:55:37;21.39;53.21
64961;SHT31;51487;52.266;10.542;2022-07-25T02:58:03;21.37;53.71
64961;SHT31;51487;52.266;10.542;2022-07-25T03:00:29;21.34;53.30
64961;SHT31;51487;52.266;10.542;2022-07-25T03:02:55;21.31;53.38
64961;SHT31;51487;52.266;10.542;2022-07-25T03:05:21;21.34;53.55
64961;SHT31;51487;52.266;10.542;2022-07-25T03:07:47;21.31;53.50
64961;SHT31;51487;52.266;10.542;2022-07-25T03:10:13;21.31;54.00
64961;SHT31;51487;52.266;10.542;2022-07-25T03:12:40;21.34;53.38
64961;SHT31;51487;52.266;10.542;2022-07-25T03:15:07;21.29;53.54
64961;SHT31;51487;52.266;10.542;2022-07-25T03:17:33;21.25;53.62
64961;SHT31;51487;52.266;10.542;2022-07-25T03:19:58;21.25;53.54
64961;SHT31;51487;52.266;10.542;2022-07-25T03:22:24;21.21;53.66
64961;SHT31;51487;52.266;10.542;2022-07-25T03:24:51;21.22;53.70
64961;SHT31;51487;52.266;10.542;2022-07-25T03:27:18;21.24;53.62
64961;SHT31;51487;52.266;10.542;2022-07-25T03:29:44;21.27;53.66
64961;SHT31;51487;52.266;10.542;2022-07-25T03:32:09;21.25;53.54
64961;SHT31;51487;52.266;10.542;2022-07-25T03:34:36;21.21;53.59
64961;SHT31;51487;52.266;10.542;2022-07-25T03:37:01;21.18;53.63
64961;SHT31;51487;52.266;10.542;2022-07-25T03:39:28;21.22;53.79
64961;SHT31;51487;52.266;10.542;2022-07-25T03:41:54;21.24;53.41
64961;SHT31;51487;52.266;10.542;2022-07-25T03:44:22;21.27;53.47
64961;SHT31;51487;52.266;10.542;2022-07-25T03:46:48;21.28;53.40
64961;SHT31;51487;52.266;10.542;2022-07-25T03:49:13;21.29;53.54
64961;SHT31;51487;52.266;10.542;2022-07-25T03:51:39;21.27;53.47
64961;SHT31;51487;52.266;10.542;2022-07-25T03:54:05;21.29;53.46
64961;SHT31;51487;52.266;10.542;2022-07-25T03:56:46;21.31;53.37
64961;SHT31;51487;52.266;10.542;2022-07-25T03:59:16;21.37;53.38
64961;SHT31;51487;52.266;10.542;2022-07-25T04:01:43;21.37;53.43
64961;SHT31;51487;52.266;10.542;2022-07-25T04:04:10;21.32;53.57
64961;SHT31;51487;52.266;10.542;2022-07-25T04:06:37;21.32;53.70
64961;SHT31;51487;52.266;10.542;2022-07-25T04:09:04;21.32;53.82
64961;SHT31;51487;52.266;10.542;2022-07-25T04:11:30;21.32;53.77
64961;SHT31;51487;52.266;10.542;2022-07-25T04:13:56;21.39;53.48
64961;SHT31;51487;52.266;10.542;2022-07-25T04:16:22;21.41;53.34
64961;SHT31;51487;52.266;10.542;2022-07-25T04:18:48;21.46;53.64
64961;SHT31;51487;52.266;10.542;2022-07-25T04:21:14;21.46;53.33
64961;SHT31;51487;52.266;10.542;2022-07-25T04:23:40;21.48;53.88
64961;SHT31;51487;52.266;10.542;2022-07-25T04:26:05;21.49;53.45
64961;SHT31;51487;52.266;10.542;2022-07-25T04:28:31;21.50;53.45
64961;SHT31;51487;52.266;10.542;2022-07-25T04:30:57;21.59;53.18
64961;SHT31;51487;52.266;10.542;2022-07-25T04:33:23;21.59;53.18
64961;SHT31;51487;52.266;10.542;2022-07-25T04:35:49;21.67;53.17
64961;SHT31;51487;52.266;10.542;2022-07-25T04:38:15;21.72;53.29
64961;SHT31;51487;52.266;10.542;2022-07-25T04:40:41;21.79;52.80
64961;SHT31;51487;52.266;10.542;2022-07-25T04:43:07;21.82;52.66
64961;SHT31;51487;52.266;10.542;2022-07-25T04:45:33;21.90;52.51
64961;SHT31;51487;52.266;10.542;2022-07-25T04:48:00;21.97;52.92
64961;SHT31;51487;52.266;10.542;2022-07-25T04:50:27;22.00;52.81
64961;SHT31;51487;52.266;10.542;2022-07-25T04:52:53;22.06;52.52
64961;SHT31;51487;52.266;10.542;2022-07-25T04:55:19;22.06;52.53
64961;SHT31;51487;52.266;10.542;2022-07-25T04:57:45;22.10;52.35
64961;SHT31;51487;52.266;10.542;2022-07-25T05:00:12;22.10;53.13
64961;SHT31;51487;52.266;10.542;2022-07-25T05:02:39;22.14;52.55
64961;SHT31;51487;52.266;10.542;2022-07-25T05:05:06;22.18;52.83
64961;SHT31;51487;52.266;10.542;2022-07-25T05:07:33;22.20;52.61
64961;SHT31;51487;52.266;10.542;2022-07-25T05:09:59;22.21;52.61
64961;SHT31;51487;52.266;10.542;2022-07-25T05:12:25;22.22;53.50
64961;SHT31;51487;52.266;10.542;2022-07-25T05:14:50;22.27;52.31
64961;SHT31;51487;52.266;10.542;2022-07-25T05:17:16;22.33;52.06
64961;SHT31;51487;52.266;10.542;2022-07-25T05:19:41;22.37;52.63
64961;SHT31;51487;52.266;10.542;2022-07-25T05:22:07;22.43;51.99
64961;SHT31;51487;52.266;10.542;2022-07-25T05:24:34;22.47;52.63
64961;SHT31;51487;52.266;10.542;2022-07-25T05:27:01;22.48;52.77
64961;SHT31;51487;52.266;10.542;2022-07-25T05:29:27;22.55;52.28
64961;SHT31;51487;52.266;10.542;2022-07-25T05:31:52;22.58;52.58
64961;SHT31;51487;52.266;10.542;2022-07-25T05:34:18;22.61;52.32
64961;SHT31;51487;52.266;10.542;2022-07-25T05:36:44;22.64;52.33
64961;SHT31;51487;52.266;10.542;2022-07-25T05:39:10;22.72;51.93
64961;SHT31;51487;52.266;10.542;2022-07-25T05:41:36;22.75;52.13
64961;SHT31;51487;52.266;10.542;2022-07-25T05:44:02;22.75;52.25
64961;SHT31;51487;52.266;10.542;2022-07-25T05:46:27;22.82;52.83
64961;SHT31;51487;52.266;10.542;2022-07-25T05:48:53;22.82;52.23
64961;SHT31;51487;52.266;10.542;2022-07-25T05:51:18;22.84;52.54
64961;SHT31;51487;52.266;10.542;2022-07-25T05:53:44;22.86;52.32
64961;SHT31;51487;52.266;10.542;2022-07-25T05:56:09;22.91;52.38
64961;SHT31;51487;52.266;10.542;2022-07-25T05:58:35;22.98;51.80
64961;SHT31;51487;52.266;10.542;2022-07-25T06:01:06;23.00;51.98
64961;SHT31;51487;52.266;10.542;2022-07-25T06:03:32;23.03;52.02
64961;SHT31;51487;52.266;10.542;2022-07-25T06:05:58;23.05;52.32
64961;SHT31;51487;52.266;10.542;2022-07-25T06:08:24;23.10;52.38
64961;SHT31;51487;52.266;10.542;2022-07-25T06:10:53;23.16;52.26
64961;SHT31;51487;52.266;10.542;2022-07-25T06:13:19;23.22;52.41
64961;SHT31;51487;52.266;10.542;2022-07-25T06:15:44;23.27;52.59
64961;SHT31;51487;52.266;10.542;2022-07-25T06:18:10;23.30;53.01
64961;SHT31;51487;52.266;10.542;2022-07-25T06:20:35;23.34;52.84
64961;SHT31;51487;52.266;10.542;2022-07-25T06:23:01;23.43;52.54
64961;SHT31;51487;52.266;10.542;2022-07-25T06:25:28;23.49;52.90
64961;SHT31;51487;52.266;10.542;2022-07-25T06:27:53;23.54;52.33
64961;SHT31;51487;52.266;10.542;2022-07-25T06:30:19;23.60;52.44
64961;SHT31;51487;52.266;10.542;2022-07-25T06:32:44;23.65;52.38
64961;SHT31;51487;52.266;10.542;2022-07-25T06:35:10;23.68;52.48
64961;SHT31;51487;52.266;10.542;2022-07-25T06:37:36;23.74;52.59
64961;SHT31;51487;52.266;10.542;2022-07-25T06:40:04;23.82;52.54
64961;SHT31;51487;52.266;10.542;2022-07-25T06:42:30;23.88;52.91
64961;SHT31;51487;52.266;10.542;2022-07-25T06:44:57;23.92;52.09
64961;SHT31;51487;52.266;10.542;2022-07-25T06:47:23;24.00;52.16
64961;SHT31;51487;52.266;10.542;2022-07-25T06:49:48;24.05;52.59
64961;SHT31;51487;52.266;10.542;2022-07-25T06:52:14;24.15;51.89
64961;SHT31;51487;52.266;10.542;2022-07-25T06:54:40;24.25;52.14
64961;SHT31;51487;52.266;10.542;2022-07-25T06:57:05;24.35;52.18
64961;SHT31;51487;52.266;10.542;2022-07-25T06:59:31;24.42;52.04
64961;SHT31;51487;52.266;10.542;2022-07-25T07:01:58;24.60;51.60
64961;SHT31;51487;52.266;10.542;2022-07-25T07:04:23;24.70;51.33
64961;SHT31;51487;52.266;10.542;2022-07-25T07:06:49;24.74;51.66
64961;SHT31;51487;52.266;10.542;2022-07-25T07:09:14;24.86;51.49
64961;SHT31;51487;52.266;10.542;2022-07-25T07:11:40;24.94;52.05
64961;SHT31;51487;52.266;10.542;2022-07-25T07:14:05;25.14;50.39
64961;SHT31;51487;52.266;10.542;2022-07-25T07:16:31;25.25;51.85
64961;SHT31;51487;52.266;10.542;2022-07-25T07:18:57;25.32;50.79
64961;SHT31;51487;52.266;10.542;2022-07-25T07:21:23;25.45;50.21
64961;SHT31;51487;52.266;10.542;2022-07-25T07:23:49;25.58;50.69
64961;SHT31;51487;52.266;10.542;2022-07-25T07:26:15;25.78;49.88
64961;SHT31;51487;52.266;10.542;2022-07-25T07:28:41;25.85;50.67
64961;SHT31;51487;52.266;10.542;2022-07-25T07:31:07;25.92;50.08
64961;SHT31;51487;52.266;10.542;2022-07-25T07:33:32;26.01;49.30
64961;SHT31;51487;52.266;10.542;2022-07-25T07:35:59;26.14;50.04
64961;SHT31;51487;52.266;10.542;2022-07-25T07:38:25;26.34;49.25
64961;SHT31;51487;52.266;10.542;2022-07-25T07:40:52;26.51;49.21
64961;SHT31;51487;52.266;10.542;2022-07-25T07:43:19;26.62;48.41
64961;SHT31;51487;52.266;10.542;2022-07-25T07:45:44;26.79;48.20
64961;SHT31;51487;52.266;10.542;2022-07-25T07:48:10;26.96;47.95
64961;SHT31;51487;52.266;10.542;2022-07-25T07:50:36;27.06;47.20
64961;SHT31;51487;52.266;10.542;2022-07-25T07:53:03;27.09;46.76
64961;SHT31;51487;52.266;10.542;2022-07-25T07:55:29;27.19;46.57
64961;SHT31;51487;52.266;10.542;2022-07-25T07:58:18;27.27;47.49
64961;SHT31;51487;52.266;10.542;2022-07-25T08:00:46;27.29;47.69
64961;SHT31;51487;52.266;10.542;2022-07-25T08:03:17;27.43;47.02
64961;SHT31;51487;52.266;10.542;2022-07-25T08:05:44;27.74;45.17
64961;SHT31;51487;52.266;10.542;2022-07-25T08:08:13;27.80;45.65
64961;SHT31;51487;52.266;10.542;2022-07-25T08:10:43;27.88;46.15
64961;SHT31;51487;52.266;10.542;2022-07-25T08:13:28;28.01;46.25
64961;SHT31;51487;52.266;10.542;2022-07-25T08:15:57;28.23;44.61
64961;SHT31;51487;52.266;10.542;2022-07-25T08:18:25;28.36;43.65
64961;SHT31;51487;52.266;10.542;2022-07-25T08:20:51;28.41;44.63
64961;SHT31;51487;52.266;10.542;2022-07-25T08:23:18;28.70;43.35
64961;SHT31;51487;52.266;10.542;2022-07-25T08:25:46;28.84;43.58
64961;SHT31;51487;52.266;10.542;2022-07-25T08:28:12;29.04;42.93
64961;SHT31;51487;52.266;10.542;2022-07-25T08:30:39;29.15;41.82
64961;SHT31;51487;52.266;10.542;2022-07-25T08:33:08;29.38;41.68
64961;SHT31;51487;52.266;10.542;2022-07-25T08:35:35;29.51;40.95
64961;SHT31;51487;52.266;10.542;2022-07-25T08:38:02;29.58;41.27
64961;SHT31;51487;52.266;10.542;2022-07-25T08:40:30;29.68;41.69
64961;SHT31;51487;52.266;10.542;2022-07-25T08:42:56;29.82;40.66
64961;SHT31;51487;52.266;10.542;2022-07-25T08:45:24;30.02;40.08
64961;SHT31;51487;52.266;10.542;2022-07-25T08:47:52;30.12;40.79
64961;SHT31;51487;52.266;10.542;2022-07-25T08:50:26;30.23;39.74
64961;SHT31;51487;52.266;10.542;2022-07-25T08:52:52;30.47;39.80
64961;SHT31;51487;52.266;10.542;2022-07-25T08:55:22;30.58;39.69
64961;SHT31;51487;52.266;10.542;2022-07-25T08:57:51;30.57;40.02
64961;SHT31;51487;52.266;10.542;2022-07-25T09:00:26;30.60;39.69
64961;SHT31;51487;52.266;10.542;2022-07-25T09:02:58;30.60;39.87
64961;SHT31;51487;52.266;10.542;2022-07-25T09:05:27;30.64;39.92
64961;SHT31;51487;52.266;10.542;2022-07-25T09:07:54;30.71;39.83
64961;SHT31;51487;52.266;10.542;2022-07-25T09:10:24;30.77;39.79
64961;SHT31;51487;52.266;10.542;2022-07-25T09:13:01;30.71;39.64
64961;SHT31;51487;52.266;10.542;2022-07-25T09:15:35;30.72;39.94
64961;SHT31;51487;52.266;10.542;2022-07-25T09:18:05;30.71;39.30
64961;SHT31;51487;52.266;10.542;2022-07-25T09:20:41;30.64;40.34
64961;SHT31;51487;52.266;10.542;2022-07-25T09:23:50;30.68;40.46
64961;SHT31;51487;52.266;10.542;2022-07-25T09:26:10;30.71;40.44
64961;SHT31;51487;52.266;10.542;2022-07-25T09:28:44;30.88;40.42
64961;SHT31;51487;52.266;10.542;2022-07-25T09:31:10;30.82;40.86
64961;SHT31;51487;52.266;10.542;2022-07-25T09:33:52;30.94;39.95
64961;SHT31;51487;52.266;10.542;2022-07-25T09:36:21;31.09;40.03
64961;SHT31;51487;52.266;10.542;2022-07-25T09:38:55;31.06;40.75
64961;SHT31;51487;52.266;10.542;2022-07-25T09:41:31;31.16;41.05
64961;SHT31;51487;52.266;10.542;2022-07-25T09:43:57;31.18;40.74
64961;SHT31;51487;52.266;10.542;2022-07-25T09:46:30;31.14;40.77
64961;SHT31;51487;52.266;10.542;2022-07-25T09:48:59;31.25;39.52
64961;SHT31;51487;52.266;10.542;2022-07-25T09:51:26;31.47;39.36
64961;SHT31;51487;52.266;10.542;2022-07-25T09:53:52;31.67;38.82
64961;SHT31;51487;52.266;10.542;2022-07-25T09:56:17;31.80;39.02
64961;SHT31;51487;52.266;10.542;2022-07-25T09:58:43;31.88;38.77
64961;SHT31;51487;52.266;10.542;2022-07-25T10:01:12;31.97;38.39
64961;SHT31;51487;52.266;10.542;2022-07-25T10:03:52;32.07;38.40
64961;SHT31;51487;52.266;10.542;2022-07-25T10:06:29;32.24;38.26
64961;SHT31;51487;52.266;10.542;2022-07-25T10:08:58;32.45;38.56
64961;SHT31;51487;52.266;10.542;2022-07-25T10:11:26;32.68;38.23
64961;SHT31;51487;52.266;10.542;2022-07-25T10:13:54;32.90;37.22
64961;SHT31;51487;52.266;10.542;2022-07-25T10:16:24;32.91;37.80
64961;SHT31;51487;52.266;10.542;2022-07-25T10:18:57;32.90;37.61
64961;SHT31;51487;52.266;10.542;2022-07-25T10:21:25;33.03;36.82
64961;SHT31;51487;52.266;10.542;2022-07-25T10:24:08;32.87;38.24
64961;SHT31;51487;52.266;10.542;2022-07-25T10:26:39;32.84;37.92
64961;SHT31;51487;52.266;10.542;2022-07-25T10:29:15;32.76;38.02
64961;SHT31;51487;52.266;10.542;2022-07-25T10:31:42;32.56;37.75
64961;SHT31;51487;52.266;10.542;2022-07-25T10:34:11;32.45;38.81
64961;SHT31;51487;52.266;10.542;2022-07-25T10:36:46;32.31;38.62
64961;SHT31;51487;52.266;10.542;2022-07-25T10:39:16;32.32;38.48
64961;SHT31;51487;52.266;10.542;2022-07-25T10:42:04;32.35;38.93
64961;SHT31;51487;52.266;10.542;2022-07-25T10:44:46;32.25;38.75
64961;SHT31;51487;52.266;10.542;2022-07-25T10:47:14;32.24;38.82
64961;SHT31;51487;52.266;10.542;2022-07-25T10:49:42;32.32;38.27
64961;SHT31;51487;52.266;10.542;2022-07-25T10:52:18;32.52;38.20
64961;SHT31;51487;52.266;10.542;2022-07-25T10:54:59;32.79;36.94
64961;SHT31;51487;52.266;10.542;2022-07-25T10:57:27;32.93;37.42
64961;SHT31;51487;52.266;10.542;2022-07-25T10:59:53;32.87;38.11
64961;SHT31;51487;52.266;10.542;2022-07-25T11:02:19;32.79;37.87
64961;SHT31;51487;52.266;10.542;2022-07-25T11:05:05;32.76;37.94
64961;SHT31;51487;52.266;10.542;2022-07-25T11:07:31;32.69;37.57
64961;SHT31;51487;52.266;10.542;2022-07-25T11:10:05;32.76;37.27
64961;SHT31;51487;52.266;10.542;2022-07-25T11:12:31;32.65;37.24
64961;SHT31;51487;52.266;10.542;2022-07-25T11:15:06;32.63;36.73
64961;SHT31;51487;52.266;10.542;2022-07-25T11:17:33;32.59;36.36
64961;SHT31;51487;52.266;10.542;2022-07-25T11:20:02;32.61;36.56
64961;SHT31;51487;52.266;10.542;2022-07-25T11:22:30;32.65;36.94
64961;SHT31;51487;52.266;10.542;2022-07-25T11:24:58;32.72;37.36
64961;SHT31;51487;52.266;10.542;2022-07-25T11:27:30;32.70;37.44
64961;SHT31;51487;52.266;10.542;2022-07-25T11:30:14;32.70;37.05
64961;SHT31;51487;52.266;10.542;2022-07-25T11:32:44;32.68;37.67
64961;SHT31;51487;52.266;10.542;2022-07-25T11:35:13;32.80;37.95
64961;SHT31;51487;52.266;10.542;2022-07-25T11:37:42;32.89;36.64
64961;SHT31;51487;52.266;10.542;2022-07-25T11:40:09;33.02;35.89
64961;SHT31;51487;52.266;10.542;2022-07-25T11:42:49;33.06;35.95
64961;SHT31;51487;52.266;10.542;2022-07-25T11:45:24;33.02;36.09
64961;SHT31;51487;52.266;10.542;2022-07-25T11:48:11;33.10;34.96
64961;SHT31;51487;52.266;10.542;2022-07-25T11:50:42;33.04;35.14
64961;SHT31;51487;52.266;10.542;2022-07-25T11:53:13;32.91;36.41
64961;SHT31;51487;52.266;10.542;2022-07-25T11:55:40;32.86;36.78
64961;SHT31;51487;52.266;10.542;2022-07-25T11:58:09;32.96;35.94
64961;SHT31;51487;52.266;10.542;2022-07-25T12:00:43;32.87;35.03
64961;SHT31;51487;52.266;10.542;2022-07-25T12:03:15;32.83;36.04
64961;SHT31;51487;52.266;10.542;2022-07-25T12:05:41;32.86;36.11
64961;SHT31;51487;52.266;10.542;2022-07-25T12:08:19;32.82;36.83
64961;SHT31;51487;52.266;10.542;2022-07-25T12:10:47;32.78;36.39
64961;SHT31;51487;52.266;10.542;2022-07-25T12:13:28;32.86;37.02
64961;SHT31;51487;52.266;10.542;2022-07-25T12:15:57;32.93;35.85
64961;SHT31;51487;52.266;10.542;2022-07-25T12:18:23;32.99;36.74
64961;SHT31;51487;52.266;10.542;2022-07-25T12:20:49;33.02;36.13
64961;SHT31;51487;52.266;10.542;2022-07-25T12:23:15;33.07;35.41
64961;SHT31;51487;52.266;10.542;2022-07-25T12:25:44;33.11;35.87
64961;SHT31;51487;52.266;10.542;2022-07-25T12:28:10;33.26;35.87
64961;SHT31;51487;52.266;10.542;2022-07-25T12:30:38;33.38;35.28
64961;SHT31;51487;52.266;10.542;2022-07-25T12:33:05;33.43;35.90
64961;SHT31;51487;52.266;10.542;2022-07-25T12:35:31;33.51;35.06
64961;SHT31;51487;52.266;10.542;2022-07-25T12:37:57;33.33;35.86
64961;SHT31;51487;52.266;10.542;2022-07-25T12:40:23;33.40;35.92
64961;SHT31;51487;52.266;10.542;2022-07-25T12:42:49;33.53;36.32
64961;SHT31;51487;52.266;10.542;2022-07-25T12:45:16;33.47;35.72
64961;SHT31;51487;52.266;10.542;2022-07-25T12:47:46;33.46;35.42
64961;SHT31;51487;52.266;10.542;2022-07-25T12:50:14;33.44;35.87
64961;SHT31;51487;52.266;10.542;2022-07-25T12:52:41;33.30;34.88
64961;SHT31;51487;52.266;10.542;2022-07-25T12:55:11;33.26;35.70
64961;SHT31;51487;52.266;10.542;2022-07-25T12:57:37;33.20;35.82
64961;SHT31;51487;52.266;10.542;2022-07-25T13:00:06;33.21;34.87
64961;SHT31;51487;52.266;10.542;2022-07-25T13:02:33;33.09;35.49
64961;SHT31;51487;52.266;10.542;2022-07-25T13:04:58;32.99;35.53
64961;SHT31;51487;52.266;10.542;2022-07-25T13:07:24;32.98;35.90
64961;SHT31;51487;52.266;10.542;2022-07-25T13:09:50;33.02;35.86
64961;SHT31;51487;52.266;10.542;2022-07-25T13:12:15;32.95;36.12
64961;SHT31;51487;52.266;10.542;2022-07-25T13:14:41;32.82;35.49
64961;SHT31;51487;52.266;10.542;2022-07-25T13:17:06;32.87;35.44
64961;SHT31;51487;52.266;10.542;2022-07-25T13:19:32;32.93;35.16
64961;SHT31;51487;52.266;10.542;2022-07-25T13:21:58;32.98;35.79
64961;SHT31;51487;52.266;10.542;2022-07-25T13:24:23;32.96;35.32
64961;SHT31;51487;52.266;10.542;2022-07-25T13:26:49;32.90;35.54
64961;SHT31;51487;52.266;10.542;2022-07-25T13:29:14;32.80;36.07
64961;SHT31;51487;52.266;10.542;2022-07-25T13:31:41;32.76;35.92
64961;SHT31;51487;52.266;10.542;2022-07-25T13:34:08;32.69;36.31
64961;SHT31;51487;52.266;10.542;2022-07-25T13:36:36;32.62;36.43
64961;SHT31;51487;52.266;10.542;2022-07-25T13:39:03;32.53;36.60
64961;SHT31;51487;52.266;10.542;2022-07-25T13:41:29;32.52;36.53
64961;SHT31;51487;52.266;10.542;2022-07-25T13:43:55;32.43;36.71
64961;SHT31;51487;52.266;10.542;2022-07-25T13:46:20;32.36;36.83
64961;SHT31;51487;52.266;10.542;2022-07-25T13:48:46;32.24;37.28
64961;SHT31;51487;52.266;10.542;2022-07-25T13:51:12;32.04;38.18
64961;SHT31;51487;52.266;10.542;2022-07-25T13:53:37;31.91;38.16
64961;SHT31;51487;52.266;10.542;2022-07-25T13:56:03;31.74;38.24
64961;SHT31;51487;52.266;10.542;2022-07-25T13:58:30;31.67;38.76
64961;SHT31;51487;52.266;10.542;2022-07-25T14:00:56;31.62;39.16
64961;SHT31;51487;52.266;10.542;2022-07-25T14:03:21;31.40;40.02
64961;SHT31;51487;52.266;10.542;2022-07-25T14:05:47;31.29;39.77
64961;SHT31;51487;52.266;10.542;2022-07-25T14:08:13;31.30;39.54
64961;SHT31;51487;52.266;10.542;2022-07-25T14:10:39;31.27;39.69
64961;SHT31;51487;52.266;10.542;2022-07-25T14:13:04;31.33;39.30
64961;SHT31;51487;52.266;10.542;2022-07-25T14:15:30;31.45;39.30
64961;SHT31;51487;52.266;10.542;2022-07-25T14:17:56;31.33;40.46
64961;SHT31;51487;52.266;10.542;2022-07-25T14:20:22;31.23;41.04
64961;SHT31;51487;52.266;10.542;2022-07-25T14:22:47;31.26;40.69
64961;SHT31;51487;52.266;10.542;2022-07-25T14:25:13;31.35;40.78
64961;SHT31;51487;52.266;10.542;2022-07-25T14:27:38;31.60;39.85
64961;SHT31;51487;52.266;10.542;2022-07-25T14:30:06;31.73;39.35
64961;SHT31;51487;52.266;10.542;2022-07-25T14:32:34;31.91;39.10
64961;SHT31;51487;52.266;10.542;2022-07-25T14:34:59;31.94;39.15
64961;SHT31;51487;52.266;10.542;2022-07-25T14:37:27;32.04;39.28
64961;SHT31;51487;52.266;10.542;2022-07-25T14:39:58;31.95;39.64
64961;SHT31;51487;52.266;10.542;2022-07-25T14:42:24;31.85;40.11
64961;SHT31;51487;52.266;10.542;2022-07-25T14:44:50;31.73;39.91
64961;SHT31;51487;52.266;10.542;2022-07-25T14:47:16;31.50;40.69
64961;SHT31;51487;52.266;10.542;2022-07-25T14:49:41;31.63;40.01
64961;SHT31;51487;52.266;10.542;2022-07-25T14:52:08;31.74;39.80
64961;SHT31;51487;52.266;10.542;2022-07-25T14:54:34;31.87;40.60
64961;SHT31;51487;52.266;10.542;2022-07-25T14:56:59;31.76;41.25
64961;SHT31;51487;52.266;10.542;2022-07-25T14:59:26;31.72;41.20
64961;SHT31;51487;52.266;10.542;2022-07-25T15:01:51;31.73;40.99
64961;SHT31;51487;52.266;10.542;2022-07-25T15:04:17;31.80;40.37
64961;SHT31;51487;52.266;10.542;2022-07-25T15:06:47;32.15;40.63
64961;SHT31;51487;52.266;10.542;2022-07-25T15:09:13;32.58;39.39
64961;SHT31;51487;52.266;10.542;2022-07-25T15:11:39;32.28;40.83
64961;SHT31;51487;52.266;10.542;2022-07-25T15:14:04;32.22;40.64
64961;SHT31;51487;52.266;10.542;2022-07-25T15:16:30;32.18;41.61